Time;durP1;ratioP1;P1;durP2;ratioP2;P2;SDS_P1;SDS_P2;PMS_P1;PMS_P2;Temp;Humidity;BMP_temperature;BMP_pressure;BME280_temperature;BME280_humidity;BME280_pressure;Samples;Min_cycle;Max_cycle;Signal;HPM_P1;HPM_P2
2022/01/24 00:00:16;;;;;;;10.68;5.97;;;;;;;;;;4960408;28;20117;-60
2022/01/24 00:02:42;;;;;;;12.48;6.40;;;;;;;;;;4975566;28;20125;-60
2022/01/24 00:05:11;;;;;;;14.10;6.05;;;;;;;;;;4977409;28;20173;-59
2022/01/24 00:07:37;;;;;;;14.88;5.50;;;;;;;;;;4976032;28;20092;-59
2022/01/24 00:10:12;;;;;;;14.93;5.18;;;;;;;;;;4960423;28;20045;-59
2022/01/24 00:13:11;;;;;;;11.82;5.95;;;;;;;;;;4976552;28;20037;-60
2022/01/24 00:15:53;;;;;;;8.55;5.38;;;;;;;;;;4977423;28;20054;-60
2022/01/24 00:26:48;;;;;;;15.73;5.77;;;;;;;;;;4961106;28;20045;-59
2022/01/24 00:29:17;;;;;;;13.35;6.75;;;;;;;;;;4974775;28;20046;-60
2022/01/24 00:31:42;;;;;;;12.15;6.53;;;;;;;;;;4949308;28;20065;-60
2022/01/24 00:34:15;;;;;;;12.45;5.75;;;;;;;;;;4973782;28;20054;-59
2022/01/24 00:36:41;;;;;;;16.25;5.65;;;;;;;;;;4958794;28;20045;-59
2022/01/24 00:39:09;;;;;;;10.80;4.93;;;;;;;;;;4975558;28;20156;-59
2022/01/24 00:42:30;;;;;;;11.13;5.65;;;;;;;;;;4959799;28;20034;-60
2022/01/24 00:47:02;;;;;;;9.50;4.95;;;;;;;;;;4977678;28;20034;-59
2022/01/24 00:54:55;;;;;;;10.85;5.22;;;;;;;;;;4975950;28;20038;-60
2022/01/24 00:57:23;;;;;;;13.95;5.28;;;;;;;;;;4962754;28;20776;-61
2022/01/24 00:59:49;;;;;;;9.77;5.28;;;;;;;;;;4960034;28;20622;-59
2022/01/24 01:02:19;;;;;;;10.55;5.95;;;;;;;;;;4975764;28;20117;-59
2022/01/24 01:07:36;;;;;;;7.05;4.18;;;;;;;;;;4977520;28;20034;-59
2022/01/24 01:18:20;;;;;;;6.97;4.17;;;;;;;;;;4975163;28;20557;-60
2022/01/24 01:23:24;;;;;;;12.23;4.90;;;;;;;;;;4975803;28;20041;-59
2022/01/24 01:25:51;;;;;;;7.95;4.95;;;;;;;;;;4944432;28;20038;-59
2022/01/24 01:28:23;;;;;;;9.40;5.22;;;;;;;;;;4944407;28;20085;-59
2022/01/24 01:30:51;;;;;;;6.85;3.95;;;;;;;;;;4960504;28;20030;-60
2022/01/24 01:36:16;;;;;;;12.18;4.38;;;;;;;;;;4962491;28;20042;-59
2022/01/24 01:52:44;;;;;;;7.90;4.55;;;;;;;;;;4977515;28;20038;-60
2022/01/24 01:55:26;;;;;;;7.05;4.55;;;;;;;;;;4971416;28;20030;-60
2022/01/24 01:57:54;;;;;;;8.15;4.70;;;;;;;;;;4962397;28;20145;-60
2022/01/24 02:00:20;;;;;;;8.05;3.70;;;;;;;;;;4977823;28;20041;-60
2022/01/24 02:02:47;;;;;;;8.25;4.38;;;;;;;;;;4978984;28;20088;-59
2022/01/24 02:05:15;;;;;;;6.18;4.32;;;;;;;;;;4951445;28;20114;-59
2022/01/24 02:07:44;;;;;;;6.65;4.15;;;;;;;;;;4977647;28;20108;-59
2022/01/24 02:10:23;;;;;;;7.07;4.10;;;;;;;;;;4951694;28;20125;-60
2022/01/24 02:12:49;;;;;;;9.57;5.18;;;;;;;;;;4978691;28;20040;-59
2022/01/24 02:15:26;;;;;;;7.50;4.57;;;;;;;;;;4977595;28;20034;-60
2022/01/24 02:25:40;;;;;;;10.20;5.10;;;;;;;;;;4980531;28;20177;-59
2022/01/24 02:28:07;;;;;;;7.20;4.30;;;;;;;;;;4959711;28;20255;-60
2022/01/24 02:33:04;;;;;;;8.15;4.72;;;;;;;;;;4969571;28;20470;-59
2022/01/24 02:35:29;;;;;;;8.07;4.22;;;;;;;;;;4961928;28;20140;-59
2022/01/24 02:37:57;;;;;;;9.27;4.32;;;;;;;;;;4949841;28;20125;-59
2022/01/24 02:40:28;;;;;;;7.45;4.45;;;;;;;;;;4965742;28;20117;-60
2022/01/24 02:48:28;;;;;;;7.25;3.90;;;;;;;;;;4978665;28;20485;-59
2022/01/24 02:53:34;;;;;;;7.43;4.05;;;;;;;;;;4978739;28;20026;-59
2022/01/24 02:56:02;;;;;;;8.75;4.88;;;;;;;;;;4968327;28;20109;-60
2022/01/24 02:58:30;;;;;;;8.00;4.85;;;;;;;;;;4976146;28;20030;-60
2022/01/24 03:00:58;;;;;;;9.23;4.60;;;;;;;;;;4977569;28;20088;-59
2022/01/24 03:03:25;;;;;;;8.07;4.72;;;;;;;;;;4966599;28;20877;-60
2022/01/24 03:05:58;;;;;;;9.98;4.57;;;;;;;;;;4975732;28;20732;-59
2022/01/24 03:08:23;;;;;;;7.50;4.32;;;;;;;;;;4966436;28;20042;-60
2022/01/24 03:10:53;;;;;;;12.70;5.25;;;;;;;;;;4965257;28;21916;-59
2022/01/24 03:13:32;;;;;;;8.82;4.78;;;;;;;;;;4977150;28;20042;-59
2022/01/24 03:15:59;;;;;;;9.00;4.65;;;;;;;;;;4960277;28;20451;-59
2022/01/24 03:18:27;;;;;;;8.70;4.55;;;;;;;;;;4976338;28;20030;-59
2022/01/24 03:20:53;;;;;;;9.60;4.25;;;;;;;;;;4963197;28;20040;-59
2022/01/24 03:23:21;;;;;;;10.80;5.57;;;;;;;;;;4966876;28;20026;-59
2022/01/24 03:25:52;;;;;;;8.98;4.22;;;;;;;;;;4966265;28;20036;-59
2022/01/24 03:28:20;;;;;;;10.35;5.30;;;;;;;;;;4976942;28;20054;-59
2022/01/24 03:30:45;;;;;;;8.63;4.30;;;;;;;;;;4959822;28;20053;-61
2022/01/24 03:33:13;;;;;;;10.70;5.38;;;;;;;;;;4944651;28;20045;-61
2022/01/24 03:35:43;;;;;;;7.60;4.88;;;;;;;;;;4965120;28;20045;-60
2022/01/24 03:38:09;;;;;;;10.45;5.25;;;;;;;;;;4965974;28;21896;-60
2022/01/24 03:40:34;;;;;;;7.28;4.40;;;;;;;;;;4962982;28;20026;-60
2022/01/24 03:43:05;;;;;;;9.77;5.10;;;;;;;;;;4950198;28;20034;-60
2022/01/24 03:48:39;;;;;;;9.10;4.55;;;;;;;;;;4948097;28;20066;-60
2022/01/24 03:51:05;;;;;;;12.40;5.07;;;;;;;;;;4976928;28;20092;-59
2022/01/24 03:53:31;;;;;;;8.63;5.20;;;;;;;;;;4965806;28;20462;-59
2022/01/24 03:55:56;;;;;;;14.18;5.50;;;;;;;;;;4960399;28;20042;-60
2022/01/24 03:58:24;;;;;;;12.25;5.38;;;;;;;;;;4976171;28;20037;-60
2022/01/24 04:00:49;;;;;;;10.18;5.82;;;;;;;;;;4964774;28;20050;-59
2022/01/24 04:03:18;;;;;;;14.52;6.60;;;;;;;;;;4977077;28;20030;-60
2022/01/24 04:05:43;;;;;;;9.23;4.95;;;;;;;;;;4963766;28;20393;-59
2022/01/24 04:08:14;;;;;;;10.60;5.50;;;;;;;;;;4974552;28;20026;-59
2022/01/24 04:10:49;;;;;;;12.02;5.85;;;;;;;;;;4965026;28;20030;-60
2022/01/24 04:18:43;;;;;;;12.90;5.82;;;;;;;;;;4977830;28;20033;-59
2022/01/24 04:23:50;;;;;;;15.45;6.75;;;;;;;;;;4977414;28;19917;-60
2022/01/24 04:26:16;;;;;;;9.75;5.40;;;;;;;;;;4967844;28;20037;-60
2022/01/24 04:28:43;;;;;;;10.48;5.95;;;;;;;;;;4974657;28;20576;-60
2022/01/24 04:31:09;;;;;;;13.50;6.60;;;;;;;;;;4959613;28;20026;-59
2022/01/24 04:33:34;;;;;;;13.85;6.30;;;;;;;;;;4960860;28;20037;-59
2022/01/24 04:36:02;;;;;;;17.10;6.95;;;;;;;;;;4974299;28;20030;-60
2022/01/24 04:38:30;;;;;;;12.70;6.65;;;;;;;;;;4965442;28;20034;-60
2022/01/24 04:41:01;;;;;;;13.60;6.15;;;;;;;;;;4975484;28;20037;-60
2022/01/24 04:43:47;;;;;;;14.75;7.05;;;;;;;;;;4975868;28;20042;-59
2022/01/24 04:51:36;;;;;;;11.45;6.85;;;;;;;;;;4956131;28;20132;-61
2022/01/24 04:56:33;;;;;;;17.27;7.25;;;;;;;;;;4975832;28;20045;-61
2022/01/24 04:59:01;;;;;;;17.17;8.18;;;;;;;;;;4975117;28;21887;-61
2022/01/24 05:01:29;;;;;;;22.92;7.63;;;;;;;;;;4948436;28;20054;-60
2022/01/24 05:03:57;;;;;;;16.65;7.55;;;;;;;;;;4972999;28;20616;-60
2022/01/24 05:06:23;;;;;;;20.65;8.50;;;;;;;;;;4979647;28;20054;-59
2022/01/24 05:08:48;;;;;;;14.65;6.72;;;;;;;;;;4955048;28;20655;-61
2022/01/24 05:11:31;;;;;;;15.70;7.20;;;;;;;;;;4976368;28;20050;-60
2022/01/24 05:24:43;;;;;;;13.45;7.22;;;;;;;;;;4965151;28;20074;-61
2022/01/24 05:27:13;;;;;;;16.17;7.20;;;;;;;;;;4969035;28;20034;-60
2022/01/24 05:29:38;;;;;;;16.75;8.45;;;;;;;;;;4978519;28;20132;-61
2022/01/24 05:32:08;;;;;;;18.65;7.68;;;;;;;;;;4948954;28;20045;-61
2022/01/24 05:34:36;;;;;;;19.77;8.30;;;;;;;;;;4968512;28;20030;-60
2022/01/24 05:37:02;;;;;;;18.20;8.07;;;;;;;;;;4978244;28;20040;-60
2022/01/24 05:39:27;;;;;;;19.80;8.90;;;;;;;;;;4964069;28;20044;-60
2022/01/24 05:41:53;;;;;;;17.42;9.00;;;;;;;;;;4979261;28;20038;-61
2022/01/24 05:44:18;;;;;;;18.02;8.15;;;;;;;;;;4978911;28;20041;-61
2022/01/24 05:46:44;;;;;;;15.25;7.50;;;;;;;;;;4962626;28;20107;-60
2022/01/24 05:49:09;;;;;;;15.45;7.05;;;;;;;;;;4979468;28;20038;-61
2022/01/24 05:51:37;;;;;;;19.20;8.77;;;;;;;;;;4978375;28;20038;-60
2022/01/24 05:54:07;;;;;;;18.25;7.53;;;;;;;;;;4978111;28;20064;-60
2022/01/24 05:56:34;;;;;;;22.25;8.35;;;;;;;;;;4978802;28;20043;-60
2022/01/24 05:59:02;;;;;;;21.80;8.82;;;;;;;;;;4961741;28;20041;-61
2022/01/24 06:01:28;;;;;;;20.20;8.15;;;;;;;;;;4962841;28;20052;-60
2022/01/24 06:03:53;;;;;;;17.10;7.45;;;;;;;;;;4979703;28;20021;-60
2022/01/24 06:06:23;;;;;;;19.27;7.82;;;;;;;;;;4978761;28;20346;-59
2022/01/24 06:08:48;;;;;;;22.20;8.57;;;;;;;;;;4961449;28;20777;-59
2022/01/24 06:11:17;;;;;;;18.05;9.20;;;;;;;;;;4961630;28;20038;-59
2022/01/24 06:13:52;;;;;;;18.65;8.90;;;;;;;;;;4960647;28;20037;-59
2022/01/24 06:16:17;;;;;;;16.90;8.18;;;;;;;;;;4964868;28;20031;-60
2022/01/24 06:18:45;;;;;;;19.45;9.15;;;;;;;;;;4968544;28;20389;-60
2022/01/24 06:21:13;;;;;;;23.13;8.77;;;;;;;;;;4953898;28;20046;-61
2022/01/24 06:23:45;;;;;;;26.88;10.43;;;;;;;;;;4962270;28;20133;-61
2022/01/24 06:26:14;;;;;;;22.35;9.05;;;;;;;;;;4959598;28;20038;-61
2022/01/24 06:28:39;;;;;;;20.92;8.38;;;;;;;;;;4977389;28;20078;-60
2022/01/24 06:31:07;;;;;;;19.83;8.45;;;;;;;;;;4968711;28;20125;-60
2022/01/24 06:33:35;;;;;;;24.52;8.57;;;;;;;;;;4942864;28;20092;-60
2022/01/24 06:36:03;;;;;;;17.67;8.45;;;;;;;;;;4964807;28;20053;-60
2022/01/24 06:38:29;;;;;;;20.13;9.00;;;;;;;;;;4978697;28;20034;-60
2022/01/24 06:40:56;;;;;;;26.73;8.55;;;;;;;;;;4966918;28;20041;-61
2022/01/24 06:43:24;;;;;;;20.00;8.30;;;;;;;;;;4977080;28;20528;-60
2022/01/24 06:45:54;;;;;;;18.95;7.60;;;;;;;;;;4978427;28;20034;-60
2022/01/24 06:48:22;;;;;;;19.73;8.27;;;;;;;;;;4975484;28;20030;-59
2022/01/24 06:50:53;;;;;;;20.08;9.02;;;;;;;;;;4958706;28;20044;-60
2022/01/24 06:53:18;;;;;;;18.48;9.05;;;;;;;;;;4978217;28;20152;-60
2022/01/24 06:55:49;;;;;;;17.27;8.40;;;;;;;;;;4976910;28;20605;-61
2022/01/24 06:58:18;;;;;;;19.20;7.75;;;;;;;;;;4954084;28;20034;-61
2022/01/24 07:00:43;;;;;;;21.55;9.65;;;;;;;;;;4977292;28;20026;-60
2022/01/24 07:03:14;;;;;;;16.35;7.90;;;;;;;;;;4965195;28;20037;-61
2022/01/24 07:05:56;;;;;;;21.92;8.90;;;;;;;;;;4966549;28;20153;-60
2022/01/24 07:08:24;;;;;;;19.70;7.97;;;;;;;;;;4978442;28;20045;-60
2022/01/24 07:10:54;;;;;;;20.73;9.45;;;;;;;;;;4978271;28;20058;-60
2022/01/24 07:13:21;;;;;;;21.52;9.45;;;;;;;;;;4976433;28;20054;-60
2022/01/24 07:15:51;;;;;;;23.52;8.82;;;;;;;;;;4978235;28;20027;-60
2022/01/24 07:21:10;;;;;;;15.55;6.80;;;;;;;;;;4960902;28;20054;-59
2022/01/24 07:23:36;;;;;;;18.42;8.80;;;;;;;;;;4978443;28;20029;-60
2022/01/24 07:26:04;;;;;;;19.55;9.35;;;;;;;;;;4960704;28;20745;-59
2022/01/24 07:28:29;;;;;;;21.10;7.95;;;;;;;;;;4946801;28;20065;-61
2022/01/24 07:30:55;;;;;;;18.08;8.35;;;;;;;;;;4977495;28;20663;-60
2022/01/24 07:33:20;;;;;;;19.48;7.68;;;;;;;;;;4958642;28;20142;-60
2022/01/24 07:35:48;;;;;;;18.38;8.38;;;;;;;;;;4976914;28;20303;-60
2022/01/24 07:38:14;;;;;;;19.23;8.57;;;;;;;;;;4947447;28;20078;-59
2022/01/24 07:40:42;;;;;;;20.08;8.15;;;;;;;;;;4978370;28;20892;-59
2022/01/24 07:43:12;;;;;;;22.88;8.20;;;;;;;;;;4975958;28;20038;-59
2022/01/24 07:45:48;;;;;;;21.50;9.05;;;;;;;;;;4966765;28;20088;-60
2022/01/24 07:48:18;;;;;;;19.20;8.38;;;;;;;;;;4977688;28;20069;-61
2022/01/24 07:50:47;;;;;;;19.90;9.05;;;;;;;;;;4966371;28;20137;-59
2022/01/24 07:53:16;;;;;;;23.30;8.85;;;;;;;;;;4975107;28;20033;-60
2022/01/24 07:55:43;;;;;;;19.60;8.20;;;;;;;;;;4977458;28;20049;-60
2022/01/24 07:58:11;;;;;;;19.10;7.80;;;;;;;;;;4974583;28;20033;-60
2022/01/24 08:00:39;;;;;;;21.73;8.18;;;;;;;;;;4957059;28;20029;-60
2022/01/24 08:03:07;;;;;;;22.10;8.95;;;;;;;;;;4965002;28;20084;-60
2022/01/24 08:05:38;;;;;;;19.95;9.27;;;;;;;;;;4976777;28;20160;-60
2022/01/24 08:08:06;;;;;;;19.50;8.93;;;;;;;;;;4959042;28;20050;-60
2022/01/24 08:10:32;;;;;;;15.95;7.88;;;;;;;;;;4978269;28;20152;-60
2022/01/24 08:13:03;;;;;;;18.42;8.75;;;;;;;;;;4972157;28;20054;-60
2022/01/24 08:15:31;;;;;;;17.92;8.48;;;;;;;;;;4942695;28;20026;-60
2022/01/24 08:17:59;;;;;;;18.38;8.38;;;;;;;;;;4962153;28;20033;-60
2022/01/24 08:20:26;;;;;;;21.40;8.60;;;;;;;;;;4963512;28;20038;-61
2022/01/24 08:22:52;;;;;;;18.75;8.70;;;;;;;;;;4957963;28;20037;-61
2022/01/24 08:25:20;;;;;;;19.70;8.82;;;;;;;;;;4963240;28;20034;-60
2022/01/24 08:27:48;;;;;;;19.65;8.95;;;;;;;;;;4959549;28;20124;-61
2022/01/24 08:30:17;;;;;;;25.27;9.25;;;;;;;;;;4957524;28;20038;-61
2022/01/24 08:32:46;;;;;;;19.45;8.30;;;;;;;;;;4963621;28;20057;-61
2022/01/24 08:35:17;;;;;;;20.55;8.75;;;;;;;;;;4972355;28;20564;-60
2022/01/24 08:37:43;;;;;;;17.60;8.15;;;;;;;;;;4970577;28;20123;-60
2022/01/24 08:40:09;;;;;;;20.08;10.10;;;;;;;;;;4970546;28;20041;-62
2022/01/24 08:42:44;;;;;;;22.65;9.57;;;;;;;;;;4977528;28;20030;-60
2022/01/24 08:48:02;;;;;;;22.08;10.13;;;;;;;;;;4966207;28;20038;-61
2022/01/24 08:50:32;;;;;;;18.52;9.45;;;;;;;;;;4978691;28;20041;-61
2022/01/24 08:52:59;;;;;;;20.55;9.32;;;;;;;;;;4966285;28;20216;-60
2022/01/24 08:55:28;;;;;;;22.25;9.18;;;;;;;;;;4960983;28;20044;-62
2022/01/24 08:57:56;;;;;;;18.00;8.50;;;;;;;;;;4977706;28;20042;-62
2022/01/24 09:00:22;;;;;;;23.08;9.45;;;;;;;;;;4962841;28;20034;-60
2022/01/24 09:02:48;;;;;;;16.75;8.98;;;;;;;;;;4980702;28;20630;-60
2022/01/24 09:05:18;;;;;;;22.58;9.82;;;;;;;;;;4981301;28;20030;-60
2022/01/24 09:07:44;;;;;;;17.58;8.35;;;;;;;;;;4977828;28;20037;-60
2022/01/24 09:10:12;;;;;;;20.98;9.70;;;;;;;;;;4962993;28;20381;-60
2022/01/24 09:12:39;;;;;;;24.67;9.52;;;;;;;;;;4962375;28;20037;-61
2022/01/24 09:15:05;;;;;;;21.85;10.27;;;;;;;;;;4979662;28;20399;-60
2022/01/24 09:17:31;;;;;;;19.38;9.25;;;;;;;;;;4961247;28;20054;-59
2022/01/24 09:19:59;;;;;;;19.42;8.80;;;;;;;;;;4962022;28;20200;-60
2022/01/24 09:22:33;;;;;;;24.83;10.70;;;;;;;;;;4978243;28;20023;-60
2022/01/24 09:25:02;;;;;;;24.60;11.13;;;;;;;;;;4976311;28;20023;-60
2022/01/24 09:27:30;;;;;;;20.95;9.35;;;;;;;;;;4978484;28;20643;-60
2022/01/24 09:29:58;;;;;;;23.30;10.38;;;;;;;;;;4976846;28;20816;-59
2022/01/24 09:32:27;;;;;;;23.50;9.82;;;;;;;;;;4959909;28;20048;-61
2022/01/24 09:34:55;;;;;;;25.48;11.40;;;;;;;;;;4978163;28;20065;-60
2022/01/24 09:37:20;;;;;;;21.90;10.40;;;;;;;;;;4966748;28;20054;-60
2022/01/24 09:39:46;;;;;;;27.10;10.88;;;;;;;;;;4947025;28;20048;-60
2022/01/24 09:42:11;;;;;;;20.80;10.23;;;;;;;;;;4945269;28;20034;-61
2022/01/24 09:44:44;;;;;;;26.17;10.57;;;;;;;;;;4965706;28;20026;-62
2022/01/24 09:47:14;;;;;;;22.50;10.98;;;;;;;;;;4966150;28;20034;-61
2022/01/24 09:49:43;;;;;;;27.77;12.18;;;;;;;;;;4978428;28;20034;-64
2022/01/24 09:52:15;;;;;;;33.70;12.73;;;;;;;;;;4978481;28;20041;-61
2022/01/24 09:54:41;;;;;;;29.65;12.82;;;;;;;;;;4961409;28;20088;-61
2022/01/24 09:57:08;;;;;;;24.50;11.77;;;;;;;;;;4960820;28;20398;-61
2022/01/24 09:59:37;;;;;;;25.42;11.43;;;;;;;;;;4978916;28;20030;-61
2022/01/24 10:02:07;;;;;;;25.73;11.23;;;;;;;;;;4964792;28;20041;-61
2022/01/24 10:04:33;;;;;;;31.27;13.38;;;;;;;;;;4967761;28;20046;-61
2022/01/24 10:07:01;;;;;;;30.05;12.80;;;;;;;;;;4975059;28;20022;-62
2022/01/24 10:09:35;;;;;;;31.77;14.25;;;;;;;;;;4965249;28;20038;-60
2022/01/24 10:12:08;;;;;;;32.53;13.77;;;;;;;;;;4977840;28;20038;-61
2022/01/24 10:17:27;;;;;;;30.70;12.07;;;;;;;;;;4978766;28;21905;-61
2022/01/24 10:19:53;;;;;;;23.83;11.98;;;;;;;;;;4976652;28;20042;-61
2022/01/24 10:22:26;;;;;;;32.60;12.88;;;;;;;;;;4977712;28;20059;-60
2022/01/24 10:24:56;;;;;;;32.40;13.45;;;;;;;;;;4978073;28;20388;-63
2022/01/24 10:27:28;;;;;;;29.65;13.25;;;;;;;;;;4944934;28;20431;-60
2022/01/24 10:30:02;;;;;;;32.90;13.40;;;;;;;;;;4961163;28;20704;-61
2022/01/24 10:32:28;;;;;;;27.38;13.70;;;;;;;;;;4961571;28;20030;-60
2022/01/24 10:34:56;;;;;;;32.80;14.13;;;;;;;;;;4975653;28;20026;-61
2022/01/24 10:37:26;;;;;;;28.95;14.40;;;;;;;;;;4976855;28;20192;-61
2022/01/24 10:40:09;;;;;;;30.27;13.73;;;;;;;;;;4968010;28;20084;-61
2022/01/24 10:42:52;;;;;;;36.33;13.77;;;;;;;;;;4961076;28;20132;-61
2022/01/24 10:45:22;;;;;;;34.13;15.13;;;;;;;;;;4967506;28;20046;-61
2022/01/24 10:47:52;;;;;;;45.67;18.90;;;;;;;;;;4959961;28;20026;-60
2022/01/24 10:50:20;;;;;;;47.67;18.45;;;;;;;;;;4966636;28;20084;-61
2022/01/24 10:52:45;;;;;;;33.22;16.60;;;;;;;;;;4976747;28;20033;-61
2022/01/24 10:55:13;;;;;;;40.90;17.77;;;;;;;;;;4965510;28;20073;-61
2022/01/24 10:57:45;;;;;;;41.45;16.48;;;;;;;;;;4973153;28;20535;-61
2022/01/24 11:00:25;;;;;;;37.53;15.75;;;;;;;;;;4966697;28;20057;-59
2022/01/24 11:02:51;;;;;;;39.28;16.30;;;;;;;;;;4965698;28;21644;-60
2022/01/24 11:05:19;;;;;;;44.15;16.58;;;;;;;;;;4962184;28;20030;-60
2022/01/24 11:07:57;;;;;;;38.42;17.15;;;;;;;;;;4976161;28;21831;-60
2022/01/24 11:10:26;;;;;;;45.42;18.65;;;;;;;;;;4961709;28;20046;-60
2022/01/24 11:12:54;;;;;;;41.58;17.48;;;;;;;;;;4976118;28;20037;-60
2022/01/24 11:15:20;;;;;;;40.53;16.42;;;;;;;;;;4974692;28;20402;-60
2022/01/24 11:17:52;;;;;;;38.33;16.33;;;;;;;;;;4975255;28;20026;-60
2022/01/24 11:20:19;;;;;;;35.35;15.48;;;;;;;;;;4976651;28;20795;-60
2022/01/24 11:22:58;;;;;;;38.63;16.25;;;;;;;;;;4951965;28;20025;-60
2022/01/24 11:25:24;;;;;;;35.42;15.20;;;;;;;;;;4967514;28;20031;-60
2022/01/24 11:27:54;;;;;;;38.78;15.95;;;;;;;;;;4959688;28;20076;-59
2022/01/24 11:30:35;;;;;;;34.80;16.02;;;;;;;;;;4976002;28;20044;-61
2022/01/24 11:33:14;;;;;;;41.38;16.95;;;;;;;;;;4956628;28;20061;-60
2022/01/24 11:35:53;;;;;;;35.15;15.73;;;;;;;;;;4966151;28;20034;-59
2022/01/24 11:38:38;;;;;;;36.83;15.60;;;;;;;;;;4959561;28;20035;-59
2022/01/24 11:41:42;;;;;;;33.10;16.50;;;;;;;;;;4943507;28;20161;-60
2022/01/24 11:44:12;;;;;;;38.88;15.95;;;;;;;;;;4961262;28;20553;-61
2022/01/24 11:46:55;;;;;;;37.05;15.13;;;;;;;;;;4975946;28;20018;-60
2022/01/24 11:49:27;;;;;;;39.33;15.40;;;;;;;;;;4976204;28;20046;-60
2022/01/24 11:52:13;;;;;;;40.63;16.55;;;;;;;;;;4961935;28;20045;-59
2022/01/24 11:55:01;;;;;;;37.08;15.20;;;;;;;;;;4960895;28;20054;-60
2022/01/24 11:57:36;;;;;;;34.40;13.75;;;;;;;;;;4975355;28;20046;-60
2022/01/24 12:00:04;;;;;;;33.75;14.77;;;;;;;;;;4961759;28;20049;-59
2022/01/24 12:02:31;;;;;;;35.40;14.32;;;;;;;;;;4958892;28;20485;-60
2022/01/24 12:05:03;;;;;;;36.28;15.88;;;;;;;;;;4962578;28;20525;-60
2022/01/24 12:07:40;;;;;;;30.67;13.63;;;;;;;;;;4966824;28;20030;-60
2022/01/24 12:10:20;;;;;;;28.10;13.57;;;;;;;;;;4965575;28;20206;-60
2022/01/24 12:12:48;;;;;;;28.27;13.13;;;;;;;;;;4977123;28;20037;-60
2022/01/24 12:15:49;;;;;;;33.28;14.70;;;;;;;;;;4964714;28;20049;-60
2022/01/24 12:18:18;;;;;;;32.80;14.50;;;;;;;;;;4917660;28;20037;-63
2022/01/24 12:20:50;;;;;;;32.80;14.48;;;;;;;;;;4977864;28;20149;-60
2022/01/24 12:23:28;;;;;;;41.13;15.82;;;;;;;;;;4957126;28;20343;-60
2022/01/24 12:26:07;;;;;;;35.70;15.52;;;;;;;;;;4976644;28;20135;-59
2022/01/24 12:28:41;;;;;;;36.92;15.40;;;;;;;;;;4975777;28;20073;-61
2022/01/24 12:31:12;;;;;;;34.90;14.07;;;;;;;;;;4964206;28;20536;-60
2022/01/24 12:33:41;;;;;;;35.30;15.48;;;;;;;;;;4976606;28;20611;-60
2022/01/24 12:36:08;;;;;;;33.92;14.75;;;;;;;;;;4965810;28;20477;-60
2022/01/24 12:38:43;;;;;;;33.40;14.75;;;;;;;;;;4956600;28;20129;-59
2022/01/24 12:41:18;;;;;;;39.78;15.52;;;;;;;;;;4973401;28;20077;-59
2022/01/24 12:46:28;;;;;;;39.47;16.13;;;;;;;;;;4976254;28;20038;-61
2022/01/24 12:49:00;;;;;;;39.65;15.07;;;;;;;;;;4976577;28;20038;-61
2022/01/24 12:51:28;;;;;;;37.13;15.60;;;;;;;;;;4975075;28;20073;-59
2022/01/24 12:53:57;;;;;;;30.00;13.80;;;;;;;;;;4976102;28;20042;-59
2022/01/24 12:56:26;;;;;;;34.95;15.27;;;;;;;;;;4960984;28;20041;-59
2022/01/24 12:58:55;;;;;;;37.13;15.15;;;;;;;;;;4972923;28;20052;-59
2022/01/24 13:01:30;;;;;;;36.13;14.98;;;;;;;;;;4970021;28;20477;-60
2022/01/24 13:04:08;;;;;;;46.80;15.38;;;;;;;;;;4958484;28;20026;-59
2022/01/24 13:06:35;;;;;;;34.17;14.80;;;;;;;;;;4973773;28;20401;-60
2022/01/24 13:09:10;;;;;;;34.90;15.10;;;;;;;;;;4976562;28;20243;-60
2022/01/24 13:11:53;;;;;;;34.50;14.93;;;;;;;;;;4964513;28;20127;-60
2022/01/24 13:22:54;;;;;;;32.50;15.40;;;;;;;;;;4973044;28;20505;-60
2022/01/24 13:25:25;;;;;;;36.22;16.20;;;;;;;;;;4967483;28;20026;-58
2022/01/24 13:27:58;;;;;;;42.20;16.92;;;;;;;;;;4978802;28;20369;-60
2022/01/24 13:30:46;;;;;;;37.33;15.45;;;;;;;;;;4968349;28;20058;-60
2022/01/24 13:33:22;;;;;;;39.67;15.65;;;;;;;;;;4979091;28;20104;-60
2022/01/24 13:35:49;;;;;;;32.40;14.95;;;;;;;;;;4979281;28;20040;-60
2022/01/24 13:38:19;;;;;;;37.90;17.00;;;;;;;;;;4976568;28;20425;-60
2022/01/24 13:43:31;;;;;;;34.65;13.48;;;;;;;;;;4978683;28;20123;-59
2022/01/24 13:45:59;;;;;;;;;;;;;;;;;;4966469;28;20041;-60
2022/01/24 13:48:46;;;;;;;35.05;14.18;;;;;;;;;;4979784;28;19917;-60
2022/01/24 13:51:19;;;;;;;34.45;13.93;;;;;;;;;;4961942;28;20031;-59
2022/01/24 13:53:56;;;;;;;36.65;14.73;;;;;;;;;;4979218;28;20030;-60
2022/01/24 13:56:26;;;;;;;43.70;16.02;;;;;;;;;;4977204;28;20101;-60
2022/01/24 13:59:11;;;;;;;36.05;15.48;;;;;;;;;;4970471;28;20145;-58
2022/01/24 14:01:38;;;;;;;35.53;15.83;;;;;;;;;;4978590;28;20034;-59
2022/01/24 14:04:10;;;;;;;33.00;14.43;;;;;;;;;;4978669;28;20038;-59
2022/01/24 14:07:00;;;;;;;37.53;14.65;;;;;;;;;;4979137;28;20076;-59
2022/01/24 14:09:46;;;;;;;36.95;14.98;;;;;;;;;;4967292;28;20043;-59
2022/01/24 14:12:54;;;;;;;35.38;14.52;;;;;;;;;;4978088;28;20115;-59
2022/01/24 14:15:28;;;;;;;33.75;14.30;;;;;;;;;;4962625;28;20046;-59
2022/01/24 14:20:42;;;;;;;36.17;13.48;;;;;;;;;;4978516;28;20626;-60
2022/01/24 14:23:22;;;;;;;32.03;13.98;;;;;;;;;;4951678;28;20021;-61
2022/01/24 14:25:50;;;;;;;31.85;14.10;;;;;;;;;;4962445;28;20029;-60
2022/01/24 14:28:40;;;;;;;38.78;14.60;;;;;;;;;;4979212;28;20072;-60
2022/01/24 14:31:15;;;;;;;35.15;14.45;;;;;;;;;;4960413;28;20834;-59
2022/01/24 14:33:43;;;;;;;35.60;13.80;;;;;;;;;;4976633;28;20034;-59
2022/01/24 14:36:13;;;;;;;37.25;14.68;;;;;;;;;;4957983;28;20034;-59
2022/01/24 14:38:44;;;;;;;33.67;13.93;;;;;;;;;;4969575;28;20041;-59
2022/01/24 14:41:15;;;;;;;33.17;14.40;;;;;;;;;;4961024;28;20069;-60
2022/01/24 14:46:32;;;;;;;37.83;14.52;;;;;;;;;;4963565;28;20766;-59
2022/01/24 14:48:58;;;;;;;33.33;13.60;;;;;;;;;;4977813;28;20034;-60
2022/01/24 14:51:30;;;;;;;37.88;14.70;;;;;;;;;;4961947;28;20038;-60
2022/01/24 14:53:59;;;;;;;41.63;14.02;;;;;;;;;;4964765;28;20034;-60
2022/01/24 14:56:27;;;;;;;33.50;14.40;;;;;;;;;;4943694;28;20029;-60
2022/01/24 14:58:53;;;;;;;36.38;13.27;;;;;;;;;;4966725;28;20042;-61
2022/01/24 15:01:27;;;;;;;37.78;13.93;;;;;;;;;;4961312;28;20631;-61
2022/01/24 15:03:53;;;;;;;40.47;14.98;;;;;;;;;;4965068;28;20042;-62
2022/01/24 15:06:21;;;;;;;39.92;14.88;;;;;;;;;;4970587;28;20420;-62
2022/01/24 15:08:48;;;;;;;33.83;14.27;;;;;;;;;;4964786;28;20034;-62
2022/01/24 15:11:16;;;;;;;39.15;15.18;;;;;;;;;;4978792;28;20042;-61
2022/01/24 15:14:12;;;;;;;39.75;15.88;;;;;;;;;;4976766;28;20065;-61
2022/01/24 15:16:46;;;;;;;36.03;14.77;;;;;;;;;;4958769;28;20042;-60
2022/01/24 15:27:08;;;;;;;33.85;15.18;;;;;;;;;;4975948;28;20030;-60
2022/01/24 15:29:41;;;;;;;34.88;13.88;;;;;;;;;;4977284;28;20572;-61
2022/01/24 15:32:09;;;;;;;39.75;14.77;;;;;;;;;;4976750;28;20145;-60
2022/01/24 15:34:38;;;;;;;39.20;14.70;;;;;;;;;;4952726;28;20037;-61
2022/01/24 15:37:05;;;;;;;38.20;14.52;;;;;;;;;;4977031;28;20520;-61
2022/01/24 15:39:35;;;;;;;44.03;16.88;;;;;;;;;;4976900;28;20038;-61
2022/01/24 15:42:10;;;;;;;44.55;15.48;;;;;;;;;;4967815;28;20547;-60
2022/01/24 15:45:01;;;;;;;42.22;15.30;;;;;;;;;;4970469;28;20069;-61
2022/01/24 15:47:36;;;;;;;39.42;15.27;;;;;;;;;;4959701;28;20068;-62
2022/01/24 15:50:07;;;;;;;37.88;15.98;;;;;;;;;;4977247;28;20475;-62
2022/01/24 15:52:36;;;;;;;44.23;16.90;;;;;;;;;;4947555;28;21880;-61
2022/01/24 15:55:08;;;;;;;41.80;15.00;;;;;;;;;;4975733;28;20059;-60
2022/01/24 15:57:40;;;;;;;42.10;16.05;;;;;;;;;;4975004;28;20057;-61
2022/01/24 16:00:10;;;;;;;39.25;16.15;;;;;;;;;;4975601;28;20045;-61
2022/01/24 16:02:36;;;;;;;41.30;16.33;;;;;;;;;;4972357;28;20053;-60
2022/01/24 16:05:07;;;;;;;36.97;14.85;;;;;;;;;;4942066;28;20091;-61
2022/01/24 16:07:38;;;;;;;43.20;14.32;;;;;;;;;;4976885;28;20759;-60
2022/01/24 16:10:04;;;;;;;45.30;15.00;;;;;;;;;;4948019;28;20039;-61
2022/01/24 16:12:31;;;;;;;42.72;15.32;;;;;;;;;;4975044;28;20049;-60
2022/01/24 16:14:57;;;;;;;48.33;16.50;;;;;;;;;;4971996;28;20040;-61
2022/01/24 16:17:23;;;;;;;43.70;16.08;;;;;;;;;;4957571;28;20044;-61
2022/01/24 16:19:54;;;;;;;45.63;16.63;;;;;;;;;;4942280;28;20038;-60
2022/01/24 16:25:34;;;;;;;40.15;16.08;;;;;;;;;;4944236;28;20583;-60
2022/01/24 16:28:02;;;;;;;41.13;16.33;;;;;;;;;;4976048;28;20137;-61
2022/01/24 16:30:29;;;;;;;44.63;16.10;;;;;;;;;;4973730;28;20042;-60
2022/01/24 16:32:56;;;;;;;42.30;16.85;;;;;;;;;;4961691;28;20214;-61
2022/01/24 16:35:25;;;;;;;48.72;16.08;;;;;;;;;;4975241;28;20030;-62
2022/01/24 16:37:54;;;;;;;44.72;16.27;;;;;;;;;;4976550;28;20034;-60
2022/01/24 16:49:07;;;;;;;40.55;15.32;;;;;;;;;;4971648;28;20022;-61
2022/01/24 16:51:33;;;;;;;50.60;16.60;;;;;;;;;;4973564;28;20081;-61
2022/01/24 16:54:02;;;;;;;58.17;18.63;;;;;;;;;;4973269;28;20116;-61
2022/01/24 16:56:31;;;;;;;48.83;17.77;;;;;;;;;;4964701;28;20116;-61
2022/01/24 16:58:59;;;;;;;54.28;18.10;;;;;;;;;;4965159;28;20044;-61
2022/01/24 17:01:26;;;;;;;52.85;19.02;;;;;;;;;;4966386;28;20034;-62
2022/01/24 17:03:54;;;;;;;51.97;19.58;;;;;;;;;;4970211;28;20103;-61
2022/01/24 17:06:22;;;;;;;53.92;20.75;;;;;;;;;;4977888;28;20052;-61